createdAt,value
2019-04-07T00:01:43.387Z,85.89
2019-04-07T00:04:14.585Z,85.93
2019-04-07T00:06:45.523Z,86.38
2019-04-07T00:09:16.589Z,86.63
2019-04-07T00:11:47.563Z,86.47
2019-04-07T00:14:18.350Z,86.06
2019-04-07T00:16:49.524Z,85.37
2019-04-07T00:19:20.876Z,84.59
2019-04-07T00:21:51.768Z,84.79
2019-04-07T00:24:22.645Z,84.73
2019-04-07T00:26:54.233Z,84.55
2019-04-07T00:29:25.119Z,84.85
2019-04-07T00:31:56.412Z,85.03
2019-04-07T00:34:27.628Z,84.89
2019-04-07T00:37:00.003Z,84.87
2019-04-07T00:39:32.316Z,84.71
2019-04-07T00:42:03.839Z,83.96
2019-04-07T00:44:35.201Z,84.06
2019-04-07T00:47:06.340Z,83.99
2019-04-07T00:49:37.104Z,84.34
2019-04-07T00:52:08.404Z,84.08
2019-04-07T00:54:40.835Z,84.27
2019-04-07T00:57:13.033Z,83.87
2019-04-07T00:59:44.089Z,83.59
2019-04-07T01:02:15.739Z,84.06
2019-04-07T01:04:47.230Z,84.53
2019-04-07T01:07:18.324Z,84.50
2019-04-07T01:09:49.503Z,84.25
2019-04-07T01:12:20.469Z,84.04
2019-04-07T01:14:51.200Z,83.95
2019-04-07T01:17:22.490Z,83.82
2019-04-07T01:19:53.573Z,83.70
2019-04-07T01:22:24.528Z,83.61
2019-04-07T01:24:55.982Z,83.42
2019-04-07T01:27:27.025Z,83.16
2019-04-07T01:29:58.036Z,83.45
2019-04-07T01:32:29.152Z,83.98
2019-04-07T01:35:00.476Z,84.76
2019-04-07T01:37:31.665Z,85.58
2019-04-07T01:40:03.114Z,85.90
2019-04-07T01:43:05.299Z,85.89
2019-04-07T01:46:11.049Z,85.47
2019-04-07T01:48:59.392Z,84.82
2019-04-07T01:51:58.047Z,85.09
2019-04-07T01:54:36.209Z,84.88
2019-04-07T01:57:23.750Z,84.68
2019-04-07T02:00:09.615Z,85.18
2019-04-07T02:02:58.284Z,85.18
2019-04-07T02:05:58.590Z,85.01
2019-04-07T02:08:46.557Z,85.58
2019-04-07T02:11:39.756Z,85.76
2019-04-07T02:14:45.409Z,85.74
2019-04-07T02:17:25.220Z,85.51
2019-04-07T02:20:20.718Z,85.40
2019-04-07T02:23:16.476Z,84.97
2019-04-07T02:25:58.175Z,84.90
2019-04-07T02:29:00.007Z,84.69
2019-04-07T02:31:57.062Z,84.73
2019-04-07T02:34:34.781Z,85.56
2019-04-07T02:37:27.937Z,86.55
2019-04-07T02:40:16.368Z,86.82
2019-04-07T02:42:52.536Z,86.63
2019-04-07T02:45:47.938Z,86.46
2019-04-07T02:48:51.219Z,86.22
2019-04-07T02:51:44.293Z,85.32
2019-04-07T02:54:24.821Z,84.83
2019-04-07T02:57:08.056Z,84.73
2019-04-07T02:59:55.898Z,84.41
2019-04-07T03:02:33.477Z,84.69
2019-04-07T03:05:22.214Z,84.19
2019-04-07T03:08:12.110Z,83.85
2019-04-07T03:11:08.179Z,83.95
2019-04-07T03:13:54.532Z,84.19
2019-04-07T03:16:53.576Z,84.12
2019-04-07T03:19:33.299Z,84.48
2019-04-07T03:22:25.969Z,84.66
2019-04-07T03:25:20.637Z,84.48
2019-04-07T03:28:06.817Z,84.89
2019-04-07T03:31:04.098Z,85.73
2019-04-07T03:33:48.085Z,85.46
2019-04-07T03:37:02.979Z,85.77
2019-04-07T03:39:34.302Z,86.80
2019-04-07T03:42:34.332Z,87.37
2019-04-07T03:45:30.836Z,87.56
2019-04-07T03:48:24.646Z,87.73
2019-04-07T03:51:15.000Z,87.33
2019-04-07T03:53:56.733Z,86.28
2019-04-07T03:56:37.591Z,85.77
2019-04-07T03:59:27.578Z,85.41
2019-04-07T04:02:16.309Z,85.22
2019-04-07T04:04:58.468Z,84.70
2019-04-07T04:07:38.774Z,84.66
2019-04-07T04:10:17.769Z,84.61
2019-04-07T04:13:11.078Z,84.78
2019-04-07T04:15:46.918Z,84.83
2019-04-07T04:18:18.378Z,84.67
2019-04-07T04:20:50.441Z,84.84
2019-04-07T04:23:22.010Z,84.42
2019-04-07T04:25:53.850Z,84.58
2019-04-07T04:28:24.797Z,84.51
2019-04-07T04:30:56.690Z,84.55
2019-04-07T04:33:27.749Z,84.70
2019-04-07T04:35:59.075Z,84.58
2019-04-07T04:38:30.241Z,84.42
2019-04-07T04:41:02.868Z,84.52
2019-04-07T04:43:34.083Z,84.21
2019-04-07T04:46:08.619Z,84.53
2019-04-07T04:48:38.777Z,84.50
2019-04-07T04:51:09.875Z,84.45
2019-04-07T04:53:40.784Z,84.45
2019-04-07T04:56:11.661Z,84.56
2019-04-07T04:58:42.573Z,84.19
2019-04-07T05:01:13.419Z,84.20
2019-04-07T05:03:44.435Z,84.45
2019-04-07T05:06:16.243Z,84.93
2019-04-07T05:08:47.214Z,85.46
2019-04-07T05:11:18.021Z,85.36
2019-04-07T05:13:48.946Z,84.96
2019-04-07T05:16:19.812Z,84.48
2019-04-07T05:18:50.771Z,84.70
2019-04-07T05:21:21.653Z,84.90
2019-04-07T05:23:52.543Z,84.90
2019-04-07T05:26:24.056Z,84.72
2019-04-07T05:28:55.076Z,84.97
2019-04-07T05:31:25.936Z,85.13
2019-04-07T05:33:57.461Z,84.36
2019-04-07T05:36:28.331Z,85.07
2019-04-07T05:38:59.905Z,85.01
2019-04-07T05:41:31.215Z,84.84
2019-04-07T05:44:02.558Z,84.33
2019-04-07T05:46:33.597Z,84.40
2019-04-07T05:49:05.366Z,84.00
2019-04-07T05:51:37.007Z,83.86
2019-04-07T05:54:08.097Z,83.73
2019-04-07T05:56:39.278Z,84.34
2019-04-07T05:59:12.924Z,84.36
2019-04-07T06:01:42.830Z,83.86
2019-04-07T06:04:16.882Z,83.43
2019-04-07T06:06:46.315Z,83.24
2019-04-07T06:09:19.740Z,83.36
2019-04-07T06:11:50.137Z,83.52
2019-04-07T06:14:21.434Z,83.22
2019-04-07T06:16:54.261Z,82.78
2019-04-07T06:19:25.035Z,83.00
2019-04-07T06:21:55.938Z,83.34
2019-04-07T06:24:30.884Z,83.37
2019-04-07T06:26:59.810Z,83.43
2019-04-07T06:29:30.625Z,84.08
2019-04-07T06:32:03.614Z,84.11
2019-04-07T06:34:34.257Z,83.90
2019-04-07T06:37:05.642Z,84.10
2019-04-07T06:39:37.340Z,84.35
2019-04-07T06:42:08.527Z,83.91
2019-04-07T06:44:40.013Z,83.90
2019-04-07T06:47:31.330Z,84.94
2019-04-07T06:50:30.359Z,84.87
2019-04-07T06:53:23.534Z,84.84
2019-04-07T06:56:26.200Z,84.95
2019-04-07T06:59:19.145Z,84.29
2019-04-07T07:02:12.099Z,85.58
2019-04-07T07:05:05.541Z,85.74
2019-04-07T07:07:58.429Z,86.14
2019-04-07T07:10:53.154Z,86.12
2019-04-07T07:13:52.125Z,85.25
2019-04-07T07:16:43.829Z,86.05
2019-04-07T07:19:28.566Z,87.04
2019-04-07T07:22:21.123Z,87.35
2019-04-07T07:24:55.729Z,87.15
2019-04-07T07:27:25.111Z,86.00
2019-04-07T07:29:56.631Z,86.58
2019-04-07T07:32:28.092Z,88.16
2019-04-07T07:34:59.550Z,89.08
2019-04-07T07:37:31.088Z,89.77
2019-04-07T07:40:05.828Z,90.37
2019-04-07T07:42:44.147Z,90.55
2019-04-07T07:45:48.321Z,90.48
2019-04-07T07:48:18.395Z,90.06
2019-04-07T07:50:50.091Z,89.08
2019-04-07T07:53:23.685Z,89.34
2019-04-07T07:55:53.749Z,89.50
2019-04-07T07:58:28.038Z,89.17
2019-04-07T08:01:00.178Z,89.09
2019-04-07T08:03:30.345Z,89.30
2019-04-07T08:06:04.662Z,89.51
2019-04-07T08:08:34.270Z,89.98
2019-04-07T08:11:05.572Z,90.08
2019-04-07T08:13:42.050Z,89.73
2019-04-07T08:16:09.788Z,89.30
2019-04-07T08:18:44.610Z,89.30
2019-04-07T08:21:16.572Z,89.33
2019-04-07T08:23:45.843Z,89.19
2019-04-07T08:26:16.773Z,88.81
2019-04-07T08:28:48.213Z,88.98
2019-04-07T08:31:21.456Z,88.55
2019-04-07T08:33:52.771Z,88.88
2019-04-07T08:36:23.853Z,89.10
2019-04-07T08:38:56.091Z,88.95
2019-04-07T08:41:27.795Z,88.64
2019-04-07T08:43:58.635Z,88.67
2019-04-07T08:46:35.206Z,88.37
2019-04-07T08:49:04.387Z,88.17
2019-04-07T08:51:36.148Z,88.17
2019-04-07T08:54:07.379Z,88.32
2019-04-07T08:56:38.754Z,87.31
2019-04-07T08:59:12.249Z,86.30
2019-04-07T09:01:42.217Z,85.96
2019-04-07T09:04:16.514Z,85.75
2019-04-07T09:06:45.733Z,85.99
2019-04-07T09:09:16.921Z,85.71
2019-04-07T09:11:48.056Z,85.89
2019-04-07T09:14:20.290Z,86.06
2019-04-07T09:17:32.197Z,85.80
2019-04-07T09:20:23.828Z,85.54
2019-04-07T09:23:10.290Z,85.60
2019-04-07T09:25:59.402Z,85.82
2019-04-07T09:28:41.986Z,85.86
2019-04-07T09:31:36.316Z,85.36
2019-04-07T09:34:20.090Z,85.46
2019-04-07T09:37:18.538Z,86.24
2019-04-07T09:40:01.038Z,85.48
2019-04-07T09:42:47.302Z,85.63
2019-04-07T09:45:39.433Z,85.42
2019-04-07T09:48:21.005Z,84.70
2019-04-07T09:51:26.905Z,84.43
2019-04-07T09:54:32.391Z,83.68
2019-04-07T09:57:30.303Z,83.10
2019-04-07T10:00:22.854Z,83.62
2019-04-07T10:02:58.110Z,83.17
2019-04-07T10:05:48.688Z,83.42
2019-04-07T10:08:30.390Z,83.45
2019-04-07T10:11:20.851Z,82.60
2019-04-07T10:14:08.709Z,81.73
2019-04-07T10:16:51.746Z,82.37
2019-04-07T10:19:49.996Z,81.65
2019-04-07T10:22:46.193Z,81.46
2019-04-07T10:25:48.415Z,81.89
2019-04-07T10:28:39.165Z,82.79
2019-04-07T10:31:29.462Z,82.31
2019-04-07T10:34:28.556Z,82.91
2019-04-07T10:37:34.578Z,83.67
2019-04-07T10:40:34.660Z,83.81
2019-04-07T10:43:18.429Z,82.29
2019-04-07T10:46:02.352Z,82.67
2019-04-07T10:48:48.606Z,82.88
2019-04-07T10:51:37.430Z,82.50
2019-04-07T10:54:16.153Z,80.68
2019-04-07T10:57:15.595Z,81.11
2019-04-07T11:00:04.704Z,78.40
2019-04-07T11:02:44.183Z,79.69
2019-04-07T11:05:32.816Z,80.30
2019-04-07T11:08:21.365Z,79.92
2019-04-07T11:11:10.002Z,80.01
2019-04-07T11:13:58.800Z,80.39
2019-04-07T11:16:51.439Z,79.75
2019-04-07T11:19:40.488Z,79.27
2019-04-07T11:22:29.647Z,78.17
2019-04-07T11:25:34.895Z,78.37
2019-04-07T11:28:24.212Z,80.88
2019-04-07T11:31:21.130Z,81.39
2019-04-07T11:34:17.464Z,80.92
2019-04-07T11:37:02.082Z,80.13
2019-04-07T11:39:54.960Z,79.48
2019-04-07T11:42:57.817Z,77.82
2019-04-07T11:45:39.003Z,78.18
2019-04-07T11:48:19.693Z,78.76
2019-04-07T11:51:13.025Z,79.47
2019-04-07T11:54:09.671Z,78.09
2019-04-07T11:57:03.319Z,75.19
2019-04-07T11:59:47.545Z,76.84
2019-04-07T12:02:44.663Z,76.15
2019-04-07T12:05:22.408Z,77.46
2019-04-07T12:08:20.714Z,76.16
2019-04-07T12:11:28.832Z,74.05
2019-04-07T12:14:19.160Z,74.45
2019-04-07T12:17:21.126Z,75.13
2019-04-07T12:19:59.637Z,76.29
2019-04-07T12:22:55.317Z,72.32
2019-04-07T12:25:46.084Z,73.17
2019-04-07T12:28:33.403Z,74.17
2019-04-07T12:31:26.920Z,72.66
2019-04-07T12:34:12.076Z,74.19
2019-04-07T12:37:07.908Z,71.91
2019-04-07T12:39:50.744Z,72.23
2019-04-07T12:42:38.508Z,71.85
2019-04-07T12:45:22.377Z,71.62
2019-04-07T12:47:59.563Z,71.81
2019-04-07T12:51:01.995Z,70.41
2019-04-07T12:53:55.363Z,70.91
2019-04-07T12:56:46.817Z,72.41
2019-04-07T12:59:39.635Z,72.46
2019-04-07T13:02:28.541Z,72.20
2019-04-07T13:05:18.636Z,73.17
2019-04-07T13:08:02.690Z,70.79
2019-04-07T13:10:42.982Z,72.27
2019-04-07T13:13:34.094Z,72.46
2019-04-07T13:16:27.864Z,72.71
2019-04-07T13:19:16.647Z,73.44
2019-04-07T13:22:06.728Z,73.69
2019-04-07T13:24:48.532Z,74.25
2019-04-07T13:27:50.141Z,74.36
2019-04-07T13:30:27.107Z,73.47
2019-04-07T13:33:19.443Z,73.45
2019-04-07T13:36:02.128Z,74.64
2019-04-07T13:38:44.565Z,74.74
2019-04-07T13:41:44.862Z,75.97
2019-04-07T13:44:19.728Z,76.03
2019-04-07T13:47:09.459Z,77.06
2019-04-07T13:50:08.445Z,77.90
2019-04-07T13:52:59.210Z,77.42
2019-04-07T13:55:47.697Z,77.88
2019-04-07T13:58:46.718Z,77.83
2019-04-07T14:01:35.779Z,76.88
2019-04-07T14:04:24.164Z,76.82
2019-04-07T14:07:02.469Z,76.68
2019-04-07T14:09:44.152Z,77.67
2019-04-07T14:12:23.740Z,78.03
2019-04-07T14:15:26.022Z,77.49
2019-04-07T14:18:07.712Z,78.02
2019-04-07T14:20:47.530Z,78.13
2019-04-07T14:23:47.027Z,78.76
2019-04-07T14:26:43.466Z,78.97
2019-04-07T14:29:50.228Z,79.17
2019-04-07T14:32:40.038Z,79.15
2019-04-07T14:35:42.154Z,78.78
2019-04-07T14:38:45.544Z,78.26
2019-04-07T14:41:33.264Z,78.84
2019-04-07T14:44:22.532Z,79.15
2019-04-07T14:47:21.841Z,77.66
2019-04-07T14:50:26.772Z,77.97
2019-04-07T14:53:07.750Z,78.15
2019-04-07T14:56:05.822Z,78.80
2019-04-07T14:58:53.849Z,79.00
2019-04-07T15:01:53.635Z,79.22
2019-04-07T15:04:31.318Z,79.51
2019-04-07T15:07:12.877Z,79.99
2019-04-07T15:09:53.476Z,79.98
2019-04-07T15:12:33.876Z,79.65
2019-04-07T15:15:08.786Z,79.83
2019-04-07T15:17:37.561Z,79.64
2019-04-07T15:20:11.638Z,79.18
2019-04-07T15:22:41.375Z,79.07
2019-04-07T15:25:13.700Z,79.26
2019-04-07T15:27:44.595Z,79.02
2019-04-07T15:30:16.842Z,79.45
2019-04-07T15:32:48.383Z,79.27
2019-04-07T15:35:20.105Z,78.85
2019-04-07T15:37:51.932Z,79.39
2019-04-07T15:40:23.511Z,77.79
2019-04-07T15:42:54.270Z,77.67
2019-04-07T15:45:25.170Z,77.67
2019-04-07T15:47:56.471Z,77.54
2019-04-07T15:50:30.143Z,77.90
2019-04-07T15:53:00.044Z,77.06
2019-04-07T15:55:43.966Z,77.44
2019-04-07T15:58:04.218Z,77.46
2019-04-07T16:00:35.363Z,77.04
2019-04-07T16:03:07.448Z,77.47
2019-04-07T16:05:42.410Z,77.51
2019-04-07T16:08:11.670Z,77.34
2019-04-07T16:10:43.493Z,77.00
2019-04-07T16:13:15.238Z,77.84
2019-04-07T16:15:48.380Z,78.42
2019-04-07T16:18:19.009Z,78.99
2019-04-07T16:20:50.691Z,78.87
2019-04-07T16:23:22.176Z,78.47
2019-04-07T16:25:54.980Z,78.99
2019-04-07T16:28:27.423Z,80.29
2019-04-07T16:30:58.594Z,81.04
2019-04-07T16:33:32.566Z,82.01
2019-04-07T16:36:02.029Z,82.47
2019-04-07T16:38:33.136Z,82.81
2019-04-07T16:41:04.656Z,82.51
2019-04-07T16:43:37.672Z,82.56
2019-04-07T16:46:08.840Z,82.93
2019-04-07T16:48:40.382Z,83.12
2019-04-07T16:51:11.326Z,83.21
2019-04-07T16:53:43.346Z,83.06
2019-04-07T16:56:14.800Z,82.62
2019-04-07T16:58:46.088Z,82.16
2019-04-07T17:01:17.423Z,81.43
2019-04-07T17:03:48.832Z,80.29
2019-04-07T17:06:19.947Z,77.39
2019-04-07T17:08:52.875Z,75.04
2019-04-07T17:11:23.742Z,75.91
2019-04-07T17:13:54.845Z,74.06
2019-04-07T17:16:25.711Z,74.32
2019-04-07T17:18:57.554Z,73.36
2019-04-07T17:21:28.839Z,72.85
2019-04-07T17:23:59.735Z,73.72
2019-04-07T17:26:30.846Z,75.40
2019-04-07T17:29:02.073Z,73.51
2019-04-07T17:31:33.587Z,72.67
2019-04-07T17:34:09.754Z,72.55
2019-04-07T17:36:39.342Z,75.60
2019-04-07T17:39:18.841Z,77.41
2019-04-07T17:41:50.837Z,76.59
2019-04-07T17:44:49.190Z,79.25
2019-04-07T17:47:57.067Z,80.27
2019-04-07T17:50:46.333Z,80.82
2019-04-07T17:53:38.135Z,80.61
2019-04-07T17:56:30.336Z,80.29
2019-04-07T17:59:30.310Z,79.52
2019-04-07T18:02:12.517Z,78.50
2019-04-07T18:05:02.413Z,76.83
2019-04-07T18:07:51.876Z,79.08
2019-04-07T18:10:41.244Z,78.88
2019-04-07T18:13:42.017Z,78.89
2019-04-07T18:16:35.283Z,79.02
2019-04-07T18:19:37.618Z,76.39
2019-04-07T18:22:42.525Z,75.57
2019-04-07T18:25:35.281Z,78.89
2019-04-07T18:28:31.726Z,77.77
2019-04-07T18:31:25.206Z,77.34
2019-04-07T18:34:18.535Z,78.56
2019-04-07T18:37:16.891Z,78.33
2019-04-07T18:40:09.503Z,79.73
2019-04-07T18:43:13.845Z,79.48
2019-04-07T18:46:09.032Z,80.89
2019-04-07T18:48:53.234Z,82.70
2019-04-07T18:52:02.620Z,83.09
2019-04-07T18:54:53.157Z,82.61
2019-04-07T18:57:52.213Z,82.63
2019-04-07T19:00:41.401Z,83.23
2019-04-07T19:03:27.681Z,82.92
2019-04-07T19:06:32.206Z,81.80
2019-04-07T19:09:11.140Z,81.97
2019-04-07T19:12:10.543Z,81.63
2019-04-07T19:14:52.267Z,81.79
2019-04-07T19:17:46.925Z,81.94
2019-04-07T19:20:38.338Z,81.88
2019-04-07T19:23:21.630Z,82.32
2019-04-07T19:26:10.428Z,82.72
2019-04-07T19:28:51.831Z,82.26
2019-04-07T19:31:30.962Z,82.60
2019-04-07T19:34:20.721Z,81.41
2019-04-07T19:37:09.068Z,82.01
2019-04-07T19:40:02.872Z,82.36
2019-04-07T19:42:52.136Z,82.50
2019-04-07T19:45:42.100Z,82.89
2019-04-07T19:48:40.486Z,82.58
2019-04-07T19:51:32.717Z,82.79
2019-04-07T19:54:15.366Z,82.44
2019-04-07T19:57:04.828Z,82.35
2019-04-07T20:00:00.650Z,82.75
2019-04-07T20:02:49.585Z,82.68
2019-04-07T20:05:38.691Z,82.24
2019-04-07T20:08:32.432Z,82.44
2019-04-07T20:11:39.876Z,82.00
2019-04-07T20:14:28.459Z,82.52
2019-04-07T20:17:09.664Z,82.30
2019-04-07T20:20:02.181Z,83.12
2019-04-07T20:22:57.000Z,83.33
2019-04-07T20:25:55.376Z,83.32
2019-04-07T20:28:45.265Z,83.43
2019-04-07T20:31:39.449Z,83.54
2019-04-07T20:34:36.517Z,83.01
2019-04-07T20:37:27.565Z,82.43
2019-04-07T20:40:23.940Z,82.13
2019-04-07T20:43:17.557Z,82.71
2019-04-07T20:46:20.357Z,82.52
2019-04-07T20:49:08.543Z,82.47
2019-04-07T20:51:58.460Z,83.06
2019-04-07T20:54:54.421Z,83.75
2019-04-07T20:57:46.312Z,83.27
2019-04-07T21:00:38.154Z,83.11
2019-04-07T21:03:29.132Z,83.84
2019-04-07T21:06:18.775Z,83.98
2019-04-07T21:09:02.775Z,84.45
2019-04-07T21:11:47.466Z,84.48
2019-04-07T21:14:34.722Z,84.55
2019-04-07T21:17:40.783Z,84.87
2019-04-07T21:20:18.577Z,84.24
2019-04-07T21:23:09.220Z,83.56
2019-04-07T21:25:48.945Z,83.42
2019-04-07T21:28:43.858Z,83.17
2019-04-07T21:31:36.574Z,83.55
2019-04-07T21:34:17.341Z,82.76
2019-04-07T21:37:00.416Z,82.31
2019-04-07T21:39:56.825Z,82.64
2019-04-07T21:42:52.030Z,82.80
2019-04-07T21:45:45.701Z,82.21
2019-04-07T21:48:47.545Z,82.81
2019-04-07T21:51:46.590Z,83.67
2019-04-07T21:54:23.437Z,83.86
2019-04-07T21:57:17.217Z,83.53
2019-04-07T22:00:10.506Z,82.85
2019-04-07T22:03:05.511Z,82.58
2019-04-07T22:05:58.008Z,82.77
2019-04-07T22:08:33.160Z,82.88
2019-04-07T22:11:04.128Z,82.30
2019-04-07T22:13:35.563Z,82.36
2019-04-07T22:16:08.017Z,82.77
2019-04-07T22:18:39.426Z,83.01
2019-04-07T22:21:11.765Z,82.70
2019-04-07T22:23:42.570Z,83.67
2019-04-07T22:26:17.621Z,83.20
2019-04-07T22:28:47.042Z,82.69
2019-04-07T22:31:24.816Z,82.67
2019-04-07T22:33:59.165Z,82.77
2019-04-07T22:36:28.266Z,81.75
2019-04-07T22:39:02.069Z,82.56
2019-04-07T22:41:33.654Z,82.04
2019-04-07T22:44:05.104Z,82.80
2019-04-07T22:46:36.004Z,82.53
2019-04-07T22:49:07.154Z,81.73
2019-04-07T22:51:38.175Z,82.11
2019-04-07T22:54:09.970Z,81.80
2019-04-07T22:56:42.464Z,82.24
2019-04-07T22:59:13.338Z,82.23
2019-04-07T23:01:44.310Z,81.93
2019-04-07T23:04:16.088Z,82.54
2019-04-07T23:06:46.981Z,82.43
2019-04-07T23:09:17.896Z,82.40
2019-04-07T23:11:48.863Z,82.56
2019-04-07T23:14:19.936Z,82.61
2019-04-07T23:16:51.844Z,81.98
2019-04-07T23:19:22.825Z,82.16
2019-04-07T23:21:53.779Z,82.83
2019-04-07T23:24:24.771Z,82.41
2019-04-07T23:26:56.465Z,81.99
2019-04-07T23:29:28.287Z,82.82
2019-04-07T23:31:59.764Z,82.00
2019-04-07T23:34:31.190Z,82.59
2019-04-07T23:37:02.995Z,82.37
2019-04-07T23:39:33.860Z,82.54
2019-04-07T23:42:05.611Z,82.64
2019-04-07T23:44:37.314Z,82.67
2019-04-07T23:47:08.358Z,82.68
2019-04-07T23:49:39.154Z,82.88
2019-04-07T23:52:11.024Z,83.00
2019-04-07T23:54:41.946Z,82.62
2019-04-07T23:57:13.429Z,82.76
2019-04-07T23:59:44.483Z,82.69
